sensor_id;sensor_type;location;lat;lon;timestamp;P1;durP1;ratioP1;P2;durP2;ratioP2
48554;SDS011;34336;48.270;16.716;2023-12-20T00:01:11;127.22;;;50.67;;
48554;SDS011;34336;48.270;16.716;2023-12-20T00:03:39;110.65;;;50.15;;
48554;SDS011;34336;48.270;16.716;2023-12-20T00:06:08;127.45;;;51.28;;
48554;SDS011;34336;48.270;16.716;2023-12-20T00:08:36;125.43;;;52.30;;
48554;SDS011;34336;48.270;16.716;2023-12-20T00:11:04;104.72;;;52.50;;
48554;SDS011;34336;48.270;16.716;2023-12-20T00:13:32;124.50;;;54.30;;
48554;SDS011;34336;48.270;16.716;2023-12-20T00:15:59;113.60;;;54.45;;
48554;SDS011;34336;48.270;16.716;2023-12-20T00:18:27;111.35;;;52.80;;
48554;SDS011;34336;48.270;16.716;2023-12-20T00:20:55;113.93;;;53.97;;
48554;SDS011;34336;48.270;16.716;2023-12-20T00:23:23;107.95;;;51.28;;
48554;SDS011;34336;48.270;16.716;2023-12-20T00:25:50;106.68;;;51.65;;
48554;SDS011;34336;48.270;16.716;2023-12-20T00:28:18;100.88;;;51.50;;
48554;SDS011;34336;48.270;16.716;2023-12-20T00:30:46;153.93;;;52.50;;
48554;SDS011;34336;48.270;16.716;2023-12-20T00:33:13;105.28;;;51.42;;
48554;SDS011;34336;48.270;16.716;2023-12-20T00:35:41;109.82;;;50.35;;
48554;SDS011;34336;48.270;16.716;2023-12-20T00:38:09;141.63;;;55.42;;
48554;SDS011;34336;48.270;16.716;2023-12-20T00:40:37;112.35;;;53.63;;
48554;SDS011;34336;48.270;16.716;2023-12-20T00:43:05;135.98;;;52.90;;
48554;SDS011;34336;48.270;16.716;2023-12-20T00:45:33;112.40;;;50.22;;
48554;SDS011;34336;48.270;16.716;2023-12-20T00:48:00;108.68;;;51.42;;
48554;SDS011;34336;48.270;16.716;2023-12-20T00:50:28;110.40;;;53.40;;
48554;SDS011;34336;48.270;16.716;2023-12-20T00:52:56;134.32;;;52.47;;
48554;SDS011;34336;48.270;16.716;2023-12-20T00:55:24;139.65;;;50.70;;
48554;SDS011;34336;48.270;16.716;2023-12-20T00:57:51;119.70;;;51.80;;
48554;SDS011;34336;48.270;16.716;2023-12-20T01:00:20;134.93;;;51.10;;
48554;SDS011;34336;48.270;16.716;2023-12-20T01:02:48;138.00;;;54.45;;
48554;SDS011;34336;48.270;16.716;2023-12-20T01:05:18;144.18;;;51.85;;
48554;SDS011;34336;48.270;16.716;2023-12-20T01:07:46;123.22;;;50.78;;
48554;SDS011;34336;48.270;16.716;2023-12-20T01:10:13;116.93;;;50.92;;
48554;SDS011;34336;48.270;16.716;2023-12-20T01:12:41;111.57;;;48.50;;
48554;SDS011;34336;48.270;16.716;2023-12-20T01:15:09;88.35;;;47.03;;
48554;SDS011;34336;48.270;16.716;2023-12-20T01:17:37;129.00;;;50.50;;
48554;SDS011;34336;48.270;16.716;2023-12-20T01:20:05;102.55;;;49.42;;
48554;SDS011;34336;48.270;16.716;2023-12-20T01:22:32;134.93;;;49.45;;
48554;SDS011;34336;48.270;16.716;2023-12-20T01:25:02;107.05;;;47.38;;
48554;SDS011;34336;48.270;16.716;2023-12-20T01:27:30;91.80;;;45.47;;
48554;SDS011;34336;48.270;16.716;2023-12-20T01:29:58;155.80;;;49.90;;
48554;SDS011;34336;48.270;16.716;2023-12-20T01:32:25;142.40;;;48.55;;
48554;SDS011;34336;48.270;16.716;2023-12-20T01:34:53;121.10;;;46.22;;
48554;SDS011;34336;48.270;16.716;2023-12-20T01:37:24;91.65;;;43.90;;
48554;SDS011;34336;48.270;16.716;2023-12-20T01:39:53;109.72;;;46.92;;
48554;SDS011;34336;48.270;16.716;2023-12-20T01:42:20;129.15;;;48.30;;
48554;SDS011;34336;48.270;16.716;2023-12-20T01:44:48;103.65;;;45.83;;
48554;SDS011;34336;48.270;16.716;2023-12-20T01:47:16;91.95;;;44.70;;
48554;SDS011;34336;48.270;16.716;2023-12-20T01:49:44;120.38;;;46.70;;
48554;SDS011;34336;48.270;16.716;2023-12-20T01:52:12;112.95;;;46.38;;
48554;SDS011;34336;48.270;16.716;2023-12-20T01:54:40;119.88;;;46.97;;
48554;SDS011;34336;48.270;16.716;2023-12-20T01:57:07;121.93;;;46.63;;
48554;SDS011;34336;48.270;16.716;2023-12-20T01:59:35;120.30;;;45.35;;
48554;SDS011;34336;48.270;16.716;2023-12-20T02:02:03;122.32;;;45.05;;
48554;SDS011;34336;48.270;16.716;2023-12-20T02:04:31;145.60;;;48.90;;
48554;SDS011;34336;48.270;16.716;2023-12-20T02:06:58;134.38;;;46.30;;
48554;SDS011;34336;48.270;16.716;2023-12-20T02:09:26;130.93;;;44.78;;
48554;SDS011;34336;48.270;16.716;2023-12-20T02:11:55;162.45;;;48.78;;
48554;SDS011;34336;48.270;16.716;2023-12-20T02:14:22;124.05;;;46.78;;
48554;SDS011;34336;48.270;16.716;2023-12-20T02:16:50;133.70;;;47.30;;
48554;SDS011;34336;48.270;16.716;2023-12-20T02:19:17;99.75;;;45.53;;
48554;SDS011;34336;48.270;16.716;2023-12-20T02:21:47;109.05;;;45.70;;
48554;SDS011;34336;48.270;16.716;2023-12-20T02:24:14;114.60;;;46.20;;
48554;SDS011;34336;48.270;16.716;2023-12-20T02:26:44;109.40;;;45.67;;
48554;SDS011;34336;48.270;16.716;2023-12-20T02:29:12;106.75;;;46.60;;
48554;SDS011;34336;48.270;16.716;2023-12-20T02:31:40;131.65;;;44.95;;
48554;SDS011;34336;48.270;16.716;2023-12-20T02:34:08;107.07;;;44.03;;
48554;SDS011;34336;48.270;16.716;2023-12-20T02:36:35;109.18;;;44.38;;
48554;SDS011;34336;48.270;16.716;2023-12-20T02:39:03;93.60;;;43.65;;
48554;SDS011;34336;48.270;16.716;2023-12-20T02:41:31;91.50;;;43.35;;
48554;SDS011;34336;48.270;16.716;2023-12-20T02:43:58;98.00;;;43.22;;
48554;SDS011;34336;48.270;16.716;2023-12-20T02:46:26;110.53;;;44.05;;
48554;SDS011;34336;48.270;16.716;2023-12-20T02:48:53;115.82;;;44.10;;
48554;SDS011;34336;48.270;16.716;2023-12-20T02:51:21;115.38;;;44.92;;
48554;SDS011;34336;48.270;16.716;2023-12-20T02:53:49;94.57;;;42.92;;
48554;SDS011;34336;48.270;16.716;2023-12-20T02:56:16;100.10;;;42.63;;
48554;SDS011;34336;48.270;16.716;2023-12-20T02:58:44;109.38;;;43.13;;
48554;SDS011;34336;48.270;16.716;2023-12-20T03:01:11;80.15;;;40.28;;
48554;SDS011;34336;48.270;16.716;2023-12-20T03:03:39;87.10;;;40.70;;
48554;SDS011;34336;48.270;16.716;2023-12-20T03:06:07;80.47;;;40.05;;
48554;SDS011;34336;48.270;16.716;2023-12-20T03:08:34;103.47;;;40.88;;
48554;SDS011;34336;48.270;16.716;2023-12-20T03:11:02;70.57;;;39.28;;
48554;SDS011;34336;48.270;16.716;2023-12-20T03:13:30;72.13;;;40.20;;
48554;SDS011;34336;48.270;16.716;2023-12-20T03:15:57;84.90;;;39.65;;
48554;SDS011;34336;48.270;16.716;2023-12-20T03:18:25;78.22;;;39.30;;
48554;SDS011;34336;48.270;16.716;2023-12-20T03:20:54;73.80;;;37.65;;
48554;SDS011;34336;48.270;16.716;2023-12-20T03:23:22;102.43;;;41.22;;
48554;SDS011;34336;48.270;16.716;2023-12-20T03:25:49;80.07;;;38.60;;
48554;SDS011;34336;48.270;16.716;2023-12-20T03:28:17;73.57;;;37.83;;
48554;SDS011;34336;48.270;16.716;2023-12-20T03:30:45;73.32;;;38.08;;
48554;SDS011;34336;48.270;16.716;2023-12-20T03:33:13;89.15;;;37.55;;
48554;SDS011;34336;48.270;16.716;2023-12-20T03:35:41;102.22;;;37.60;;
48554;SDS011;34336;48.270;16.716;2023-12-20T03:38:08;73.18;;;37.33;;
48554;SDS011;34336;48.270;16.716;2023-12-20T03:40:36;83.78;;;37.72;;
48554;SDS011;34336;48.270;16.716;2023-12-20T03:43:04;137.23;;;39.92;;
48554;SDS011;34336;48.270;16.716;2023-12-20T03:45:31;99.93;;;38.08;;
48554;SDS011;34336;48.270;16.716;2023-12-20T03:47:59;92.35;;;35.80;;
48554;SDS011;34336;48.270;16.716;2023-12-20T03:50:26;80.38;;;34.47;;
48554;SDS011;34336;48.270;16.716;2023-12-20T03:52:54;66.18;;;33.55;;
48554;SDS011;34336;48.270;16.716;2023-12-20T03:55:22;119.00;;;37.25;;
48554;SDS011;34336;48.270;16.716;2023-12-20T03:57:50;107.03;;;36.42;;
48554;SDS011;34336;48.270;16.716;2023-12-20T04:00:17;83.55;;;35.83;;
48554;SDS011;34336;48.270;16.716;2023-12-20T04:02:45;79.82;;;35.40;;
48554;SDS011;34336;48.270;16.716;2023-12-20T04:05:12;69.38;;;34.20;;
48554;SDS011;34336;48.270;16.716;2023-12-20T04:07:41;114.07;;;39.05;;
48554;SDS011;34336;48.270;16.716;2023-12-20T04:10:09;101.40;;;35.22;;
48554;SDS011;34336;48.270;16.716;2023-12-20T04:12:37;112.20;;;35.13;;
48554;SDS011;34336;48.270;16.716;2023-12-20T04:15:04;94.00;;;34.33;;
48554;SDS011;34336;48.270;16.716;2023-12-20T04:17:36;62.13;;;31.80;;
48554;SDS011;34336;48.270;16.716;2023-12-20T04:20:04;74.35;;;33.17;;
48554;SDS011;34336;48.270;16.716;2023-12-20T04:22:32;61.67;;;31.90;;
48554;SDS011;34336;48.270;16.716;2023-12-20T04:25:00;69.45;;;33.25;;
48554;SDS011;34336;48.270;16.716;2023-12-20T04:27:27;61.55;;;32.40;;
48554;SDS011;34336;48.270;16.716;2023-12-20T04:29:55;61.30;;;32.60;;
48554;SDS011;34336;48.270;16.716;2023-12-20T04:32:23;63.90;;;32.25;;
48554;SDS011;34336;48.270;16.716;2023-12-20T04:34:50;54.75;;;31.27;;
48554;SDS011;34336;48.270;16.716;2023-12-20T04:37:18;51.03;;;31.52;;
48554;SDS011;34336;48.270;16.716;2023-12-20T04:39:46;54.67;;;31.60;;
48554;SDS011;34336;48.270;16.716;2023-12-20T04:42:14;53.42;;;31.45;;
48554;SDS011;34336;48.270;16.716;2023-12-20T04:44:41;55.38;;;32.78;;
48554;SDS011;34336;48.270;16.716;2023-12-20T04:47:10;55.28;;;33.90;;
48554;SDS011;34336;48.270;16.716;2023-12-20T04:49:38;54.03;;;32.58;;
48554;SDS011;34336;48.270;16.716;2023-12-20T04:52:05;54.38;;;33.33;;
48554;SDS011;34336;48.270;16.716;2023-12-20T04:54:33;56.40;;;33.40;;
48554;SDS011;34336;48.270;16.716;2023-12-20T04:57:01;49.45;;;31.98;;
48554;SDS011;34336;48.270;16.716;2023-12-20T04:59:29;51.05;;;32.60;;
48554;SDS011;34336;48.270;16.716;2023-12-20T05:01:56;55.30;;;33.70;;
48554;SDS011;34336;48.270;16.716;2023-12-20T05:04:24;48.33;;;32.22;;
48554;SDS011;34336;48.270;16.716;2023-12-20T05:06:52;46.67;;;30.88;;
48554;SDS011;34336;48.270;16.716;2023-12-20T05:09:19;49.05;;;33.08;;
48554;SDS011;34336;48.270;16.716;2023-12-20T05:11:47;47.15;;;30.77;;
48554;SDS011;34336;48.270;16.716;2023-12-20T05:14:15;48.50;;;30.92;;
48554;SDS011;34336;48.270;16.716;2023-12-20T05:16:43;49.17;;;31.95;;
48554;SDS011;34336;48.270;16.716;2023-12-20T05:19:11;48.78;;;30.63;;
48554;SDS011;34336;48.270;16.716;2023-12-20T05:21:38;44.08;;;30.35;;
48554;SDS011;34336;48.270;16.716;2023-12-20T05:24:06;47.92;;;31.00;;
48554;SDS011;34336;48.270;16.716;2023-12-20T05:26:33;47.20;;;29.70;;
48554;SDS011;34336;48.270;16.716;2023-12-20T05:29:01;45.40;;;31.30;;
48554;SDS011;34336;48.270;16.716;2023-12-20T05:31:29;45.50;;;31.42;;
48554;SDS011;34336;48.270;16.716;2023-12-20T05:33:56;51.08;;;31.40;;
48554;SDS011;34336;48.270;16.716;2023-12-20T05:36:25;51.33;;;32.40;;
48554;SDS011;34336;48.270;16.716;2023-12-20T05:38:53;52.35;;;32.65;;
48554;SDS011;34336;48.270;16.716;2023-12-20T05:41:20;45.58;;;29.92;;
48554;SDS011;34336;48.270;16.716;2023-12-20T05:43:48;47.60;;;30.75;;
48554;SDS011;34336;48.270;16.716;2023-12-20T05:46:16;46.65;;;31.55;;
48554;SDS011;34336;48.270;16.716;2023-12-20T05:48:43;48.53;;;32.35;;
48554;SDS011;34336;48.270;16.716;2023-12-20T05:51:11;47.08;;;30.55;;
48554;SDS011;34336;48.270;16.716;2023-12-20T05:53:39;45.83;;;30.83;;
48554;SDS011;34336;48.270;16.716;2023-12-20T05:56:07;44.83;;;30.58;;
48554;SDS011;34336;48.270;16.716;2023-12-20T05:58:34;46.85;;;30.38;;
48554;SDS011;34336;48.270;16.716;2023-12-20T06:01:05;46.20;;;30.83;;
48554;SDS011;34336;48.270;16.716;2023-12-20T06:03:35;43.50;;;29.90;;
48554;SDS011;34336;48.270;16.716;2023-12-20T06:06:06;47.63;;;29.75;;
48554;SDS011;34336;48.270;16.716;2023-12-20T06:08:42;48.30;;;32.03;;
48554;SDS011;34336;48.270;16.716;2023-12-20T06:11:10;46.95;;;30.77;;
48554;SDS011;34336;48.270;16.716;2023-12-20T06:13:39;43.42;;;30.17;;
48554;SDS011;34336;48.270;16.716;2023-12-20T06:16:07;42.63;;;28.92;;
48554;SDS011;34336;48.270;16.716;2023-12-20T06:18:34;48.60;;;31.63;;
48554;SDS011;34336;48.270;16.716;2023-12-20T06:21:04;48.08;;;31.70;;
48554;SDS011;34336;48.270;16.716;2023-12-20T06:23:31;45.28;;;30.27;;
48554;SDS011;34336;48.270;16.716;2023-12-20T06:25:59;50.55;;;32.95;;
48554;SDS011;34336;48.270;16.716;2023-12-20T06:28:27;46.58;;;31.77;;
48554;SDS011;34336;48.270;16.716;2023-12-20T06:30:54;47.90;;;32.92;;
48554;SDS011;34336;48.270;16.716;2023-12-20T06:33:23;45.97;;;31.58;;
48554;SDS011;34336;48.270;16.716;2023-12-20T06:35:51;52.60;;;32.88;;
48554;SDS011;34336;48.270;16.716;2023-12-20T06:38:19;46.97;;;30.98;;
48554;SDS011;34336;48.270;16.716;2023-12-20T06:40:47;52.60;;;32.92;;
48554;SDS011;34336;48.270;16.716;2023-12-20T06:43:14;49.85;;;31.27;;
48554;SDS011;34336;48.270;16.716;2023-12-20T06:46:02;47.33;;;30.55;;
48554;SDS011;34336;48.270;16.716;2023-12-20T06:48:30;51.80;;;32.17;;
48554;SDS011;34336;48.270;16.716;2023-12-20T06:50:59;51.50;;;32.75;;
48554;SDS011;34336;48.270;16.716;2023-12-20T06:53:28;50.97;;;32.60;;
48554;SDS011;34336;48.270;16.716;2023-12-20T06:55:56;56.38;;;35.40;;
48554;SDS011;34336;48.270;16.716;2023-12-20T06:58:24;58.50;;;39.63;;
48554;SDS011;34336;48.270;16.716;2023-12-20T07:00:51;54.03;;;36.95;;
48554;SDS011;34336;48.270;16.716;2023-12-20T07:03:19;50.25;;;34.40;;
48554;SDS011;34336;48.270;16.716;2023-12-20T07:05:47;49.17;;;33.40;;
48554;SDS011;34336;48.270;16.716;2023-12-20T07:08:14;47.50;;;32.72;;
48554;SDS011;34336;48.270;16.716;2023-12-20T07:10:42;47.83;;;31.48;;
48554;SDS011;34336;48.270;16.716;2023-12-20T07:13:09;48.08;;;33.80;;
48554;SDS011;34336;48.270;16.716;2023-12-20T07:15:37;48.75;;;32.97;;
48554;SDS011;34336;48.270;16.716;2023-12-20T07:18:05;48.33;;;32.53;;
48554;SDS011;34336;48.270;16.716;2023-12-20T07:20:34;49.55;;;32.15;;
48554;SDS011;34336;48.270;16.716;2023-12-20T07:23:01;44.58;;;29.60;;
48554;SDS011;34336;48.270;16.716;2023-12-20T07:25:29;42.90;;;29.77;;
48554;SDS011;34336;48.270;16.716;2023-12-20T07:27:59;44.80;;;31.02;;
48554;SDS011;34336;48.270;16.716;2023-12-20T07:30:27;45.40;;;30.98;;
48554;SDS011;34336;48.270;16.716;2023-12-20T07:32:55;44.33;;;30.48;;
48554;SDS011;34336;48.270;16.716;2023-12-20T07:35:23;42.40;;;29.08;;
48554;SDS011;34336;48.270;16.716;2023-12-20T07:37:52;45.22;;;30.27;;
48554;SDS011;34336;48.270;16.716;2023-12-20T07:40:20;41.40;;;29.35;;
48554;SDS011;34336;48.270;16.716;2023-12-20T07:42:47;41.85;;;29.77;;
48554;SDS011;34336;48.270;16.716;2023-12-20T07:45:15;46.22;;;29.75;;
48554;SDS011;34336;48.270;16.716;2023-12-20T07:47:42;45.40;;;30.38;;
48554;SDS011;34336;48.270;16.716;2023-12-20T07:50:11;41.08;;;28.05;;
48554;SDS011;34336;48.270;16.716;2023-12-20T07:52:39;24.42;;;17.65;;
48554;SDS011;34336;48.270;16.716;2023-12-20T07:55:06;25.30;;;17.27;;
48554;SDS011;34336;48.270;16.716;2023-12-20T07:57:34;24.65;;;13.98;;
48554;SDS011;34336;48.270;16.716;2023-12-20T08:00:02;19.80;;;13.13;;
48554;SDS011;34336;48.270;16.716;2023-12-20T08:02:30;17.10;;;11.73;;
48554;SDS011;34336;48.270;16.716;2023-12-20T08:04:58;19.40;;;11.70;;
48554;SDS011;34336;48.270;16.716;2023-12-20T08:07:25;19.15;;;11.85;;
48554;SDS011;34336;48.270;16.716;2023-12-20T08:09:53;19.27;;;11.68;;
48554;SDS011;34336;48.270;16.716;2023-12-20T08:12:23;18.33;;;10.90;;
48554;SDS011;34336;48.270;16.716;2023-12-20T08:14:52;17.73;;;10.73;;
48554;SDS011;34336;48.270;16.716;2023-12-20T08:17:20;17.60;;;10.35;;
48554;SDS011;34336;48.270;16.716;2023-12-20T08:19:47;13.48;;;9.50;;
48554;SDS011;34336;48.270;16.716;2023-12-20T08:22:15;19.83;;;9.93;;
48554;SDS011;34336;48.270;16.716;2023-12-20T08:24:43;14.98;;;9.00;;
48554;SDS011;34336;48.270;16.716;2023-12-20T08:27:11;16.77;;;8.65;;
48554;SDS011;34336;48.270;16.716;2023-12-20T08:29:38;12.43;;;9.23;;
48554;SDS011;34336;48.270;16.716;2023-12-20T08:32:06;15.70;;;9.23;;
48554;SDS011;34336;48.270;16.716;2023-12-20T08:34:33;13.57;;;8.55;;
48554;SDS011;34336;48.270;16.716;2023-12-20T08:37:01;13.18;;;8.63;;
48554;SDS011;34336;48.270;16.716;2023-12-20T08:39:29;10.90;;;8.07;;
48554;SDS011;34336;48.270;16.716;2023-12-20T08:41:59;13.88;;;8.82;;
48554;SDS011;34336;48.270;16.716;2023-12-20T08:44:26;11.13;;;7.72;;
48554;SDS011;34336;48.270;16.716;2023-12-20T08:46:54;11.77;;;8.05;;
48554;SDS011;34336;48.270;16.716;2023-12-20T08:49:23;12.95;;;7.25;;
48554;SDS011;34336;48.270;16.716;2023-12-20T08:51:52;11.65;;;7.35;;
48554;SDS011;34336;48.270;16.716;2023-12-20T08:54:20;8.98;;;6.28;;
48554;SDS011;34336;48.270;16.716;2023-12-20T08:56:47;7.68;;;6.00;;
48554;SDS011;34336;48.270;16.716;2023-12-20T08:59:15;8.60;;;6.28;;
48554;SDS011;34336;48.270;16.716;2023-12-20T09:01:43;6.78;;;5.00;;
48554;SDS011;34336;48.270;16.716;2023-12-20T09:04:10;8.13;;;5.07;;
48554;SDS011;34336;48.270;16.716;2023-12-20T09:06:38;6.15;;;4.45;;
48554;SDS011;34336;48.270;16.716;2023-12-20T09:09:06;6.43;;;4.25;;
48554;SDS011;34336;48.270;16.716;2023-12-20T09:11:36;5.72;;;4.10;;
48554;SDS011;34336;48.270;16.716;2023-12-20T09:14:04;5.78;;;3.72;;
48554;SDS011;34336;48.270;16.716;2023-12-20T09:16:32;4.80;;;3.25;;
48554;SDS011;34336;48.270;16.716;2023-12-20T09:18:59;6.38;;;3.40;;
48554;SDS011;34336;48.270;16.716;2023-12-20T09:21:27;4.25;;;3.10;;
48554;SDS011;34336;48.270;16.716;2023-12-20T09:23:55;5.43;;;3.15;;
48554;SDS011;34336;48.270;16.716;2023-12-20T09:26:22;6.50;;;3.70;;
48554;SDS011;34336;48.270;16.716;2023-12-20T09:28:50;4.93;;;3.03;;
48554;SDS011;34336;48.270;16.716;2023-12-20T09:31:17;4.85;;;3.10;;
48554;SDS011;34336;48.270;16.716;2023-12-20T09:33:45;5.55;;;2.95;;
48554;SDS011;34336;48.270;16.716;2023-12-20T09:36:13;3.92;;;2.90;;
48554;SDS011;34336;48.270;16.716;2023-12-20T09:38:41;4.65;;;2.90;;
48554;SDS011;34336;48.270;16.716;2023-12-20T09:41:11;4.65;;;3.03;;
48554;SDS011;34336;48.270;16.716;2023-12-20T09:43:38;5.25;;;2.92;;
48554;SDS011;34336;48.270;16.716;2023-12-20T09:46:07;5.78;;;2.92;;
48554;SDS011;34336;48.270;16.716;2023-12-20T09:48:37;7.00;;;3.65;;
48554;SDS011;34336;48.270;16.716;2023-12-20T09:51:05;5.22;;;2.80;;
48554;SDS011;34336;48.270;16.716;2023-12-20T09:53:33;4.70;;;2.80;;
48554;SDS011;34336;48.270;16.716;2023-12-20T09:56:03;3.92;;;2.70;;
48554;SDS011;34336;48.270;16.716;2023-12-20T09:58:31;4.70;;;2.92;;
48554;SDS011;34336;48.270;16.716;2023-12-20T10:00:58;6.20;;;2.95;;
48554;SDS011;34336;48.270;16.716;2023-12-20T10:03:27;5.82;;;3.13;;
48554;SDS011;34336;48.270;16.716;2023-12-20T10:05:56;5.30;;;2.90;;
48554;SDS011;34336;48.270;16.716;2023-12-20T10:08:25;4.38;;;2.90;;
48554;SDS011;34336;48.270;16.716;2023-12-20T10:10:53;3.90;;;2.80;;
48554;SDS011;34336;48.270;16.716;2023-12-20T10:13:20;5.00;;;3.05;;
48554;SDS011;34336;48.270;16.716;2023-12-20T10:15:49;4.13;;;3.10;;
48554;SDS011;34336;48.270;16.716;2023-12-20T10:18:17;3.22;;;2.50;;
48554;SDS011;34336;48.270;16.716;2023-12-20T10:20:45;5.55;;;3.30;;
48554;SDS011;34336;48.270;16.716;2023-12-20T10:23:13;4.07;;;3.00;;
48554;SDS011;34336;48.270;16.716;2023-12-20T10:25:42;4.45;;;2.88;;
48554;SDS011;34336;48.270;16.716;2023-12-20T10:28:11;4.53;;;3.03;;
48554;SDS011;34336;48.270;16.716;2023-12-20T10:30:40;3.65;;;2.70;;
48554;SDS011;34336;48.270;16.716;2023-12-20T10:33:09;3.00;;;2.35;;
48554;SDS011;34336;48.270;16.716;2023-12-20T10:35:38;5.28;;;2.42;;
48554;SDS011;34336;48.270;16.716;2023-12-20T10:38:11;3.78;;;2.58;;
48554;SDS011;34336;48.270;16.716;2023-12-20T10:40:40;3.75;;;2.55;;
48554;SDS011;34336;48.270;16.716;2023-12-20T10:43:09;3.38;;;2.65;;
48554;SDS011;34336;48.270;16.716;2023-12-20T10:45:38;3.10;;;2.67;;
48554;SDS011;34336;48.270;16.716;2023-12-20T10:48:05;3.63;;;2.55;;
48554;SDS011;34336;48.270;16.716;2023-12-20T10:50:34;4.20;;;2.33;;
48554;SDS011;34336;48.270;16.716;2023-12-20T10:53:05;3.00;;;2.05;;
48554;SDS011;34336;48.270;16.716;2023-12-20T10:55:33;3.95;;;2.40;;
48554;SDS011;34336;48.270;16.716;2023-12-20T10:58:03;3.15;;;2.15;;
48554;SDS011;34336;48.270;16.716;2023-12-20T11:00:40;3.15;;;2.45;;
48554;SDS011;34336;48.270;16.716;2023-12-20T11:03:09;3.92;;;2.10;;
48554;SDS011;34336;48.270;16.716;2023-12-20T11:05:45;2.30;;;1.90;;
48554;SDS011;34336;48.270;16.716;2023-12-20T11:08:26;4.07;;;2.35;;
48554;SDS011;34336;48.270;16.716;2023-12-20T11:10:58;2.53;;;2.00;;
48554;SDS011;34336;48.270;16.716;2023-12-20T11:13:28;2.63;;;2.33;;
48554;SDS011;34336;48.270;16.716;2023-12-20T11:15:58;3.00;;;2.20;;
48554;SDS011;34336;48.270;16.716;2023-12-20T11:18:29;2.67;;;2.10;;
48554;SDS011;34336;48.270;16.716;2023-12-20T11:21:15;2.75;;;2.10;;
48554;SDS011;34336;48.270;16.716;2023-12-20T11:23:43;2.10;;;1.80;;
48554;SDS011;34336;48.270;16.716;2023-12-20T11:26:11;2.33;;;1.80;;
48554;SDS011;34336;48.270;16.716;2023-12-20T11:28:38;3.95;;;2.50;;
48554;SDS011;34336;48.270;16.716;2023-12-20T11:31:06;3.42;;;2.33;;
48554;SDS011;34336;48.270;16.716;2023-12-20T11:33:38;2.77;;;2.20;;
48554;SDS011;34336;48.270;16.716;2023-12-20T11:36:13;3.47;;;2.50;;
48554;SDS011;34336;48.270;16.716;2023-12-20T11:38:55;2.20;;;2.00;;
48554;SDS011;34336;48.270;16.716;2023-12-20T11:41:24;2.58;;;2.20;;
48554;SDS011;34336;48.270;16.716;2023-12-20T11:43:52;3.38;;;2.65;;
48554;SDS011;34336;48.270;16.716;2023-12-20T11:46:21;3.88;;;2.00;;
48554;SDS011;34336;48.270;16.716;2023-12-20T11:48:48;4.30;;;2.63;;
48554;SDS011;34336;48.270;16.716;2023-12-20T11:51:16;3.08;;;2.35;;
48554;SDS011;34336;48.270;16.716;2023-12-20T11:53:44;3.22;;;2.58;;
48554;SDS011;34336;48.270;16.716;2023-12-20T11:56:12;3.28;;;2.78;;
48554;SDS011;34336;48.270;16.716;2023-12-20T11:58:39;3.60;;;2.40;;
48554;SDS011;34336;48.270;16.716;2023-12-20T12:01:08;4.35;;;2.60;;
48554;SDS011;34336;48.270;16.716;2023-12-20T12:03:35;3.70;;;2.30;;
48554;SDS011;34336;48.270;16.716;2023-12-20T12:06:03;3.53;;;2.53;;
48554;SDS011;34336;48.270;16.716;2023-12-20T12:08:31;3.53;;;2.58;;
48554;SDS011;34336;48.270;16.716;2023-12-20T12:11:00;3.00;;;2.70;;
48554;SDS011;34336;48.270;16.716;2023-12-20T12:13:27;2.92;;;2.40;;
48554;SDS011;34336;48.270;16.716;2023-12-20T12:15:55;3.72;;;2.85;;
48554;SDS011;34336;48.270;16.716;2023-12-20T12:18:23;3.03;;;2.53;;
48554;SDS011;34336;48.270;16.716;2023-12-20T12:20:55;3.42;;;2.42;;
48554;SDS011;34336;48.270;16.716;2023-12-20T12:23:27;2.55;;;2.35;;
48554;SDS011;34336;48.270;16.716;2023-12-20T12:25:54;3.53;;;2.50;;
48554;SDS011;34336;48.270;16.716;2023-12-20T12:28:25;2.58;;;2.30;;
48554;SDS011;34336;48.270;16.716;2023-12-20T12:30:58;2.60;;;2.40;;
48554;SDS011;34336;48.270;16.716;2023-12-20T12:33:26;3.28;;;2.50;;
48554;SDS011;34336;48.270;16.716;2023-12-20T12:35:54;3.55;;;2.75;;
48554;SDS011;34336;48.270;16.716;2023-12-20T12:38:22;2.45;;;2.15;;
48554;SDS011;34336;48.270;16.716;2023-12-20T12:40:51;3.60;;;2.47;;
48554;SDS011;34336;48.270;16.716;2023-12-20T12:43:20;2.90;;;2.13;;
48554;SDS011;34336;48.270;16.716;2023-12-20T12:45:49;3.28;;;2.00;;
48554;SDS011;34336;48.270;16.716;2023-12-20T12:48:17;2.20;;;2.00;;
48554;SDS011;34336;48.270;16.716;2023-12-20T12:50:45;3.42;;;2.45;;
48554;SDS011;34336;48.270;16.716;2023-12-20T12:53:13;3.42;;;2.30;;
48554;SDS011;34336;48.270;16.716;2023-12-20T12:55:41;2.33;;;2.13;;
48554;SDS011;34336;48.270;16.716;2023-12-20T12:58:08;2.75;;;2.15;;
48554;SDS011;34336;48.270;16.716;2023-12-20T13:00:36;4.40;;;2.88;;
48554;SDS011;34336;48.270;16.716;2023-12-20T13:03:04;3.13;;;2.05;;
48554;SDS011;34336;48.270;16.716;2023-12-20T13:05:31;2.90;;;1.98;;
48554;SDS011;34336;48.270;16.716;2023-12-20T13:08:05;2.40;;;2.15;;
48554;SDS011;34336;48.270;16.716;2023-12-20T13:10:33;2.35;;;1.90;;
48554;SDS011;34336;48.270;16.716;2023-12-20T13:13:00;2.92;;;2.00;;
48554;SDS011;34336;48.270;16.716;2023-12-20T13:15:28;2.15;;;1.60;;
48554;SDS011;34336;48.270;16.716;2023-12-20T13:17:57;2.38;;;2.03;;
48554;SDS011;34336;48.270;16.716;2023-12-20T13:20:24;1.98;;;1.73;;
48554;SDS011;34336;48.270;16.716;2023-12-20T13:22:52;2.10;;;1.80;;
48554;SDS011;34336;48.270;16.716;2023-12-20T13:25:20;1.70;;;1.55;;
48554;SDS011;34336;48.270;16.716;2023-12-20T13:27:48;2.05;;;1.58;;
48554;SDS011;34336;48.270;16.716;2023-12-20T13:30:18;1.85;;;1.60;;
48554;SDS011;34336;48.270;16.716;2023-12-20T13:32:45;2.25;;;1.60;;
48554;SDS011;34336;48.270;16.716;2023-12-20T13:35:13;2.25;;;1.23;;
48554;SDS011;34336;48.270;16.716;2023-12-20T13:37:41;1.25;;;1.15;;
48554;SDS011;34336;48.270;16.716;2023-12-20T13:40:09;1.10;;;1.00;;
48554;SDS011;34336;48.270;16.716;2023-12-20T13:42:37;2.03;;;1.20;;
48554;SDS011;34336;48.270;16.716;2023-12-20T13:45:05;1.77;;;1.30;;
48554;SDS011;34336;48.270;16.716;2023-12-20T13:47:33;1.60;;;1.50;;
48554;SDS011;34336;48.270;16.716;2023-12-20T13:50:02;1.40;;;1.17;;
48554;SDS011;34336;48.270;16.716;2023-12-20T13:52:29;1.42;;;1.13;;
48554;SDS011;34336;48.270;16.716;2023-12-20T13:54:57;1.73;;;1.38;;
48554;SDS011;34336;48.270;16.716;2023-12-20T13:57:25;1.92;;;1.40;;
48554;SDS011;34336;48.270;16.716;2023-12-20T14:00:12;1.80;;;1.52;;
48554;SDS011;34336;48.270;16.716;2023-12-20T14:02:41;1.58;;;1.27;;
48554;SDS011;34336;48.270;16.716;2023-12-20T14:05:09;1.63;;;1.33;;
48554;SDS011;34336;48.270;16.716;2023-12-20T14:07:37;1.77;;;1.30;;
48554;SDS011;34336;48.270;16.716;2023-12-20T14:10:05;1.50;;;1.20;;
48554;SDS011;34336;48.270;16.716;2023-12-20T14:12:33;1.55;;;1.20;;
48554;SDS011;34336;48.270;16.716;2023-12-20T14:15:03;1.58;;;1.40;;
48554;SDS011;34336;48.270;16.716;2023-12-20T14:17:30;2.08;;;1.08;;
48554;SDS011;34336;48.270;16.716;2023-12-20T14:19:58;1.85;;;1.40;;
48554;SDS011;34336;48.270;16.716;2023-12-20T14:22:26;1.90;;;1.40;;